Time;durP1;ratioP1;P1;durP2;ratioP2;P2;SDS_P1;SDS_P2;PMS_P1;PMS_P2;Temp;Humidity;BMP_temperature;BMP_pressure;BME280_temperature;BME280_humidity;BME280_pressure;Samples;Min_cycle;Max_cycle;Signal;HPM_P1;HPM_P2
2021/12/07 00:00:33;;;;;;;0.30;0.30;;;0.90;99.90;;;;;;5115198;28;20059;-45
2021/12/07 00:02:58;;;;;;;0.80;0.45;;;0.90;99.90;;;;;;5115128;28;20096;-48
2021/12/07 00:05:25;;;;;;;1.10;1.10;;;0.80;99.90;;;;;;5097083;28;20027;-47
2021/12/07 00:07:51;;;;;;;0.00;0.00;;;0.80;99.90;;;;;;5114884;28;20032;-46
2021/12/07 00:10:17;;;;;;;0.00;0.00;;;0.80;99.90;;;;;;5115213;28;20351;-47
2021/12/07 00:12:45;;;;;;;0.00;0.00;;;0.80;99.90;;;;;;5114879;28;20449;-45
2021/12/07 00:15:15;;;;;;;0.00;0.00;;;0.90;99.90;;;;;;5114877;28;20028;-44
2021/12/07 00:17:41;;;;;;;0.00;0.00;;;0.90;99.90;;;;;;5115041;28;20032;-47
2021/12/07 00:20:11;;;;;;;0.00;0.00;;;0.90;99.90;;;;;;5114626;28;20048;-48
2021/12/07 00:22:38;;;;;;;10.57;2.23;;;0.90;99.90;;;;;;5114788;28;20094;-44
2021/12/07 00:25:06;;;;;;;0.00;0.00;;;0.90;99.90;;;;;;5114970;28;20028;-43
2021/12/07 00:27:32;;;;;;;0.52;0.52;;;0.90;99.90;;;;;;5114615;28;20100;-46
2021/12/07 00:29:58;;;;;;;0.00;0.00;;;0.80;99.90;;;;;;5114519;28;20019;-45
2021/12/07 00:32:31;;;;;;;0.00;0.00;;;0.80;99.90;;;;;;5096562;28;20023;-46
2021/12/07 00:37:46;;;;;;;0.00;0.00;;;0.90;99.90;;;;;;5114521;28;20113;-47
2021/12/07 00:40:14;;;;;;;0.00;0.00;;;1.00;99.90;;;;;;5114537;28;20024;-44
2021/12/07 00:42:40;;;;;;;3.00;0.30;;;0.90;99.90;;;;;;5114681;28;20041;-45
2021/12/07 00:45:08;;;;;;;2.35;0.88;;;0.90;99.90;;;;;;5114341;28;20126;-48
2021/12/07 00:47:34;;;;;;;0.00;0.00;;;1.00;99.90;;;;;;5114583;28;20033;-47
2021/12/07 00:50:00;;;;;;;0.00;0.00;;;1.10;99.90;;;;;;5114204;28;20028;-45
2021/12/07 00:52:27;;;;;;;0.00;0.00;;;1.10;99.90;;;;;;5114463;28;20088;-45
2021/12/07 00:54:53;;;;;;;0.00;0.00;;;1.10;99.90;;;;;;5114376;28;20069;-46
2021/12/07 00:57:20;;;;;;;0.00;0.00;;;1.10;99.90;;;;;;5114459;28;20038;-47
2021/12/07 00:59:46;;;;;;;0.00;0.00;;;1.10;99.90;;;;;;5114520;28;20023;-46
2021/12/07 01:02:12;;;;;;;0.00;0.00;;;1.10;99.90;;;;;;5114170;28;20077;-46
2021/12/07 01:04:39;;;;;;;0.93;0.73;;;1.10;99.90;;;;;;5114330;28;20111;-45
2021/12/07 01:07:13;;;;;;;0.00;0.00;;;1.10;99.90;;;;;;5114262;28;20047;-45
2021/12/07 01:24:40;;;;;;;0.00;0.00;;;1.10;99.90;;;;;;5114010;28;20028;-45
2021/12/07 01:26:10;;;;;;;0.00;0.00;;;1.20;99.90;;;;;;5114113;28;20173;-45
2021/12/07 01:28:40;;;;;;;0.47;0.47;;;1.10;99.90;;;;;;5114285;28;20110;-44
2021/12/07 01:31:32;;;;;;;0.00;0.00;;;1.10;99.90;;;;;;5113860;28;20509;-48
2021/12/07 01:39:49;;;;;;;0.00;0.00;;;1.20;99.90;;;;;;5113754;28;20449;-46
2021/12/07 02:01:00;;;;;;;0.00;0.00;;;1.50;99.90;;;;;;5117855;28;20031;-47
2021/12/07 02:03:26;;;;;;;0.30;0.30;;;1.60;99.90;;;;;;5117737;28;20055;-47
2021/12/07 02:05:52;;;;;;;0.00;0.00;;;1.60;99.90;;;;;;5117727;28;20023;-47
2021/12/07 02:08:18;;;;;;;0.00;0.00;;;1.60;99.90;;;;;;5117628;28;20346;-45
2021/12/07 02:10:44;;;;;;;0.00;0.00;;;1.60;99.90;;;;;;5117252;28;20019;-46
2021/12/07 02:15:55;;;;;;;1.35;0.55;;;1.70;99.90;;;;;;5117257;28;20053;-48
2021/12/07 02:18:21;;;;;;;0.00;0.00;;;1.70;99.90;;;;;;5117496;28;20032;-47
2021/12/07 02:20:48;;;;;;;0.00;0.00;;;1.70;99.90;;;;;;5117757;28;20516;-47
2021/12/07 02:23:15;;;;;;;0.00;0.00;;;1.70;99.90;;;;;;5117357;28;20055;-45
2021/12/07 02:25:41;;;;;;;0.00;0.00;;;1.80;99.90;;;;;;5116227;28;20398;-48
2021/12/07 02:28:12;;;;;;;0.00;0.00;;;1.80;99.90;;;;;;5117033;28;20110;-48
2021/12/07 02:30:38;;;;;;;0.00;0.00;;;1.80;99.90;;;;;;5117292;28;20085;-45
2021/12/07 02:33:04;;;;;;;0.00;0.00;;;1.80;99.90;;;;;;5117064;28;20043;-48
2021/12/07 02:35:30;;;;;;;0.60;0.60;;;1.80;99.90;;;;;;5117026;28;20024;-45
2021/12/07 02:37:58;;;;;;;0.00;0.00;;;1.80;99.90;;;;;;5098427;28;20055;-45
2021/12/07 02:40:24;;;;;;;0.00;0.00;;;1.80;99.90;;;;;;5116720;28;20046;-46
2021/12/07 02:42:50;;;;;;;0.00;0.00;;;1.80;99.90;;;;;;5116998;28;20477;-45
2021/12/07 02:45:18;;;;;;;0.00;0.00;;;1.80;99.90;;;;;;5116667;28;20027;-47
2021/12/07 02:47:45;;;;;;;0.00;0.00;;;1.80;99.90;;;;;;5116802;28;20035;-47
2021/12/07 02:50:11;;;;;;;0.00;0.00;;;1.70;99.90;;;;;;5116875;28;20101;-46
2021/12/07 02:52:37;;;;;;;0.00;0.00;;;1.80;99.90;;;;;;5116727;28;20027;-44
2021/12/07 02:55:05;;;;;;;0.00;0.00;;;1.70;99.90;;;;;;5116746;28;20407;-46
2021/12/07 02:57:33;;;;;;;0.00;0.00;;;1.70;99.90;;;;;;5116726;28;20028;-45
2021/12/07 03:00:05;;;;;;;0.25;0.25;;;1.70;99.90;;;;;;5116621;28;20027;-47
2021/12/07 03:02:41;;;;;;;0.00;0.00;;;1.70;99.90;;;;;;5115542;28;20051;-48
2021/12/07 03:05:19;;;;;;;0.00;0.00;;;1.80;99.90;;;;;;5116506;28;20027;-47
2021/12/07 03:26:22;;;;;;;0.00;0.00;;;1.90;99.90;;;;;;5081076;28;20059;-46
2021/12/07 03:28:50;;;;;;;0.05;0.05;;;1.90;99.90;;;;;;5093858;28;20028;-46
2021/12/07 03:31:17;;;;;;;0.00;0.00;;;1.60;99.90;;;;;;5096447;28;20028;-45
2021/12/07 03:33:43;;;;;;;0.00;0.00;;;1.60;99.90;;;;;;5090102;28;20024;-47
2021/12/07 03:36:11;;;;;;;0.30;0.30;;;1.60;99.90;;;;;;5094134;28;20035;-45
2021/12/07 03:38:37;;;;;;;0.00;0.00;;;1.40;99.90;;;;;;5075887;28;20036;-44
2021/12/07 03:41:04;;;;;;;0.00;0.00;;;1.40;99.90;;;;;;5075832;28;20024;-48
2021/12/07 03:43:29;;;;;;;0.00;0.00;;;1.50;99.90;;;;;;5093868;28;20024;-48
2021/12/07 03:45:55;;;;;;;0.03;0.03;;;1.50;99.90;;;;;;5094004;28;20090;-45
2021/12/07 03:48:21;;;;;;;0.38;0.38;;;1.40;99.90;;;;;;5093967;28;20030;-47
2021/12/07 03:50:47;;;;;;;0.00;0.00;;;1.40;99.90;;;;;;5094051;28;20016;-45
2021/12/07 03:53:13;;;;;;;0.20;0.20;;;1.50;99.90;;;;;;5093630;28;20089;-46
2021/12/07 03:55:39;;;;;;;0.00;0.00;;;1.60;99.90;;;;;;5093477;28;20517;-47
2021/12/07 03:58:05;;;;;;;0.00;0.00;;;1.60;99.90;;;;;;5093414;28;20024;-48
2021/12/07 04:00:35;;;;;;;0.00;0.00;;;1.60;99.90;;;;;;5093734;28;20107;-47
2021/12/07 04:03:07;;;;;;;0.00;0.00;;;1.50;99.90;;;;;;5085675;28;20471;-46
2021/12/07 04:05:34;;;;;;;0.00;0.00;;;1.60;99.90;;;;;;5077409;28;20126;-46
2021/12/07 04:07:59;;;;;;;0.00;0.00;;;1.60;99.90;;;;;;5092668;28;20479;-45
2021/12/07 04:10:26;;;;;;;0.00;0.00;;;1.70;99.90;;;;;;5073523;28;20108;-48
2021/12/07 04:12:52;;;;;;;0.00;0.00;;;1.60;99.90;;;;;;5089106;28;20020;-45
2021/12/07 04:15:18;;;;;;;0.00;0.00;;;1.60;99.90;;;;;;5094561;28;20404;-47
2021/12/07 04:17:44;;;;;;;0.00;0.00;;;1.60;99.90;;;;;;5094492;28;20020;-50
2021/12/07 04:20:13;;;;;;;0.10;0.10;;;1.60;99.90;;;;;;5094462;28;20024;-47
2021/12/07 04:22:38;;;;;;;0.00;0.00;;;1.60;99.90;;;;;;5074310;28;20051;-46
2021/12/07 04:25:07;;;;;;;0.00;0.00;;;1.70;99.90;;;;;;5069227;28;20029;-44
2021/12/07 04:27:37;;;;;;;0.00;0.00;;;1.60;99.90;;;;;;5057746;28;20029;-47
2021/12/07 04:30:15;;;;;;;0.00;0.00;;;1.60;99.90;;;;;;5060835;28;20052;-44
2021/12/07 04:32:41;;;;;;;0.00;0.00;;;1.60;99.90;;;;;;5074064;28;20041;-46
2021/12/07 04:35:09;;;;;;;0.00;0.00;;;1.60;99.90;;;;;;5073579;28;20098;-47
2021/12/07 04:37:35;;;;;;;0.00;0.00;;;1.70;99.90;;;;;;5074022;28;20111;-45
2021/12/07 04:40:01;;;;;;;0.00;0.00;;;1.70;99.90;;;;;;5070348;28;20090;-47
2021/12/07 04:42:26;;;;;;;0.00;0.00;;;1.80;99.90;;;;;;5072600;28;20028;-46
2021/12/07 04:44:57;;;;;;;0.68;0.50;;;1.60;99.90;;;;;;5069643;28;20054;-47
2021/12/07 04:47:34;;;;;;;0.00;0.00;;;1.60;99.90;;;;;;5072570;28;20028;-51
2021/12/07 04:58:35;;;;;;;0.00;0.00;;;1.50;99.90;;;;;;5009220;28;20077;-48
2021/12/07 05:01:06;;;;;;;0.00;0.00;;;1.70;99.90;;;;;;5044627;28;20041;-45
2021/12/07 05:03:32;;;;;;;0.00;0.00;;;1.70;99.90;;;;;;5065892;28;20043;-50
2021/12/07 05:05:58;;;;;;;0.00;0.00;;;1.80;99.90;;;;;;5053386;28;20124;-47
2021/12/07 05:24:10;;;;;;;0.00;0.00;;;1.90;99.90;;;;;;5091474;28;20027;-46
2021/12/07 05:40:17;;;;;;;0.00;0.00;;;1.90;99.90;;;;;;5093121;28;20050;-46
2021/12/07 05:42:42;;;;;;;;;;;1.80;99.90;;;;;;5093424;28;20028;-47
2021/12/07 05:45:12;;;;;;;0.00;0.00;;;1.90;99.90;;;;;;5092754;28;20305;-48
2021/12/07 05:47:39;;;;;;;0.17;0.17;;;1.90;99.90;;;;;;5093434;28;20024;-50
2021/12/07 05:50:07;;;;;;;0.00;0.00;;;1.90;99.90;;;;;;5092952;28;20519;-48
2021/12/07 05:52:33;;;;;;;0.60;0.60;;;1.90;99.90;;;;;;5087352;28;20376;-48
2021/12/07 05:54:58;;;;;;;0.00;0.00;;;1.90;99.90;;;;;;5077343;28;20024;-50
2021/12/07 05:57:25;;;;;;;0.00;0.00;;;1.90;99.90;;;;;;5092927;28;20028;-46
2021/12/07 05:59:51;;;;;;;0.00;0.00;;;2.00;99.90;;;;;;5069558;28;20097;-47
2021/12/07 06:02:16;;;;;;;0.45;0.20;;;2.00;99.90;;;;;;5073016;28;20469;-51
2021/12/07 06:04:42;;;;;;;0.00;0.00;;;1.90;99.90;;;;;;5091088;28;20446;-50
2021/12/07 06:07:10;;;;;;;0.28;0.25;;;2.00;99.90;;;;;;5086853;28;20039;-51
2021/12/07 06:09:36;;;;;;;0.00;0.00;;;1.80;99.90;;;;;;5088567;28;20035;-48
2021/12/07 06:12:01;;;;;;;0.00;0.00;;;1.90;99.90;;;;;;5090470;28;20036;-51
2021/12/07 06:14:34;;;;;;;0.00;0.00;;;2.00;99.90;;;;;;5076567;28;20053;-51
2021/12/07 06:17:01;;;;;;;0.00;0.00;;;1.90;99.90;;;;;;5083682;28;20028;-45
2021/12/07 06:19:27;;;;;;;0.00;0.00;;;2.00;99.90;;;;;;5091461;28;20091;-48
2021/12/07 06:21:52;;;;;;;0.08;0.08;;;1.90;99.90;;;;;;5092842;28;20101;-47
2021/12/07 06:24:19;;;;;;;0.20;0.20;;;1.90;99.90;;;;;;5092598;28;20467;-47
2021/12/07 06:26:45;;;;;;;0.00;0.00;;;1.90;99.90;;;;;;5074282;28;20039;-45
2021/12/07 06:29:12;;;;;;;0.15;0.15;;;1.90;99.90;;;;;;5092464;28;20065;-48
2021/12/07 06:31:38;;;;;;;0.75;0.30;;;2.00;99.90;;;;;;5092492;28;20032;-48
2021/12/07 06:34:03;;;;;;;0.00;0.00;;;2.00;99.90;;;;;;5092479;28;20027;-47
2021/12/07 06:36:29;;;;;;;0.05;0.05;;;2.00;99.90;;;;;;5091540;28;20032;-48
2021/12/07 06:38:55;;;;;;;0.00;0.00;;;2.00;99.90;;;;;;5095127;28;20125;-46
2021/12/07 06:41:20;;;;;;;0.38;0.28;;;2.10;99.90;;;;;;5095771;28;20068;-50
2021/12/07 06:43:46;;;;;;;0.43;0.40;;;2.00;99.90;;;;;;5095465;28;20024;-49
2021/12/07 06:46:13;;;;;;;0.00;0.00;;;2.10;99.90;;;;;;5095404;28;20050;-48
2021/12/07 06:48:39;;;;;;;0.00;0.00;;;2.20;99.90;;;;;;5095077;28;20122;-46
2021/12/07 06:51:05;;;;;;;0.00;0.00;;;2.20;99.90;;;;;;5077288;28;20056;-47
2021/12/07 06:53:35;;;;;;;0.00;0.00;;;2.20;99.90;;;;;;5095099;28;20029;-47
2021/12/07 06:56:03;;;;;;;0.00;0.00;;;2.20;99.90;;;;;;5095712;28;20165;-46
2021/12/07 06:58:29;;;;;;;1.10;0.20;;;2.20;99.90;;;;;;5095276;28;20278;-48
2021/12/07 07:00:54;;;;;;;0.03;0.03;;;2.30;99.90;;;;;;5095578;28;20359;-46
2021/12/07 07:03:20;;;;;;;1.02;0.13;;;2.20;99.90;;;;;;5095519;28;20083;-47
2021/12/07 07:05:46;;;;;;;0.00;0.00;;;2.20;99.90;;;;;;5095161;28;20032;-47
2021/12/07 07:08:11;;;;;;;0.00;0.00;;;2.20;99.90;;;;;;5095676;28;20028;-46
2021/12/07 07:10:37;;;;;;;0.00;0.00;;;2.30;99.90;;;;;;5096045;28;20336;-48
2021/12/07 07:13:03;;;;;;;0.00;0.00;;;2.30;99.90;;;;;;5095332;28;20055;-47
2021/12/07 07:15:29;;;;;;;0.00;0.00;;;2.30;99.90;;;;;;5094993;28;20028;-45
2021/12/07 07:17:55;;;;;;;0.00;0.00;;;2.30;99.90;;;;;;5095027;28;20024;-48
2021/12/07 07:20:21;;;;;;;0.10;0.10;;;2.30;99.90;;;;;;5077089;28;20031;-46
2021/12/07 07:22:47;;;;;;;0.00;0.00;;;2.30;99.90;;;;;;5094758;28;20330;-46
2021/12/07 07:25:15;;;;;;;0.00;0.00;;;2.30;99.90;;;;;;5076879;28;20036;-46
2021/12/07 07:27:41;;;;;;;0.30;0.30;;;2.50;99.90;;;;;;5095069;28;20028;-47
2021/12/07 07:30:09;;;;;;;0.00;0.00;;;2.50;99.90;;;;;;5095147;28;20031;-46
2021/12/07 07:32:35;;;;;;;0.00;0.00;;;2.50;99.90;;;;;;5094893;28;20024;-48
2021/12/07 07:35:01;;;;;;;0.00;0.00;;;2.50;99.90;;;;;;5094849;28;20024;-45
2021/12/07 07:37:26;;;;;;;0.20;0.17;;;2.60;99.90;;;;;;5094843;28;20028;-50
2021/12/07 07:39:52;;;;;;;0.17;0.17;;;2.60;99.90;;;;;;5095017;28;20518;-46
2021/12/07 07:42:18;;;;;;;0.00;0.00;;;2.60;99.90;;;;;;5094328;28;20024;-47
2021/12/07 07:44:44;;;;;;;0.00;0.00;;;2.60;99.90;;;;;;5076259;28;20121;-48
2021/12/07 07:47:10;;;;;;;0.00;0.00;;;2.60;99.90;;;;;;5094675;28;20342;-47
2021/12/07 07:49:35;;;;;;;0.00;0.00;;;2.70;99.90;;;;;;5094011;28;20032;-48
2021/12/07 07:52:01;;;;;;;0.00;0.00;;;2.70;99.90;;;;;;5094659;28;20028;-47
2021/12/07 07:54:28;;;;;;;0.05;0.05;;;2.80;99.90;;;;;;5094060;28;20024;-48
2021/12/07 07:56:54;;;;;;;0.00;0.00;;;2.80;99.90;;;;;;5093992;28;20435;-48
2021/12/07 07:59:20;;;;;;;0.05;0.03;;;2.90;99.90;;;;;;5093830;28;20024;-49
2021/12/07 08:01:46;;;;;;;0.20;0.10;;;2.80;99.90;;;;;;5094339;28;20027;-48
2021/12/07 08:04:11;;;;;;;4.47;0.45;;;2.90;99.90;;;;;;5094000;28;20093;-48
2021/12/07 08:06:37;;;;;;;0.08;0.08;;;2.80;99.90;;;;;;5094082;28;20085;-45
2021/12/07 08:09:05;;;;;;;3.70;0.30;;;2.80;99.90;;;;;;5094360;28;20108;-45
2021/12/07 08:11:31;;;;;;;0.08;0.08;;;2.70;99.90;;;;;;5094181;28;20047;-50
2021/12/07 08:13:57;;;;;;;0.00;0.00;;;2.60;99.90;;;;;;5093795;28;20028;-48
2021/12/07 08:16:23;;;;;;;0.73;0.35;;;2.60;99.90;;;;;;5093889;28;20060;-46
2021/12/07 08:18:52;;;;;;;1.17;0.35;;;2.60;99.90;;;;;;5094092;28;20452;-47
2021/12/07 08:21:19;;;;;;;0.03;0.03;;;2.70;99.90;;;;;;5094273;28;20423;-46
2021/12/07 08:23:45;;;;;;;0.65;0.52;;;2.70;99.90;;;;;;5093772;28;20047;-49
2021/12/07 08:26:15;;;;;;;0.03;0.03;;;2.60;99.90;;;;;;5094175;28;20032;-50
2021/12/07 08:28:40;;;;;;;0.00;0.00;;;2.80;99.90;;;;;;5093894;28;20024;-53
2021/12/07 08:31:06;;;;;;;0.10;0.00;;;2.80;99.90;;;;;;5093954;28;20032;-46
2021/12/07 08:33:32;;;;;;;0.80;0.63;;;2.70;99.90;;;;;;5094336;28;20027;-47
2021/12/07 08:36:00;;;;;;;0.00;0.00;;;2.70;99.90;;;;;;5093924;28;20028;-47
2021/12/07 08:38:26;;;;;;;0.00;0.00;;;2.80;99.90;;;;;;5093850;28;20125;-48
2021/12/07 08:40:55;;;;;;;0.00;0.00;;;2.80;99.90;;;;;;5094383;28;20111;-48
2021/12/07 08:43:27;;;;;;;0.30;0.30;;;3.00;99.90;;;;;;5092320;28;20024;-48
2021/12/07 08:45:54;;;;;;;0.10;0.10;;;3.10;99.90;;;;;;5093558;28;20032;-48
2021/12/07 08:48:20;;;;;;;0.00;0.00;;;3.20;99.90;;;;;;5093542;28;20035;-48
2021/12/07 08:50:47;;;;;;;0.57;0.57;;;3.30;99.90;;;;;;5093970;28;20028;-47
2021/12/07 08:53:16;;;;;;;0.00;0.00;;;3.30;99.90;;;;;;5093758;28;20532;-46
2021/12/07 09:01:17;;;;;;;0.10;0.10;;;3.50;99.90;;;;;;5092069;28;20390;-50
2021/12/07 09:03:43;;;;;;;0.00;0.00;;;3.60;99.90;;;;;;5093275;28;20052;-47
2021/12/07 09:06:10;;;;;;;0.00;0.00;;;3.60;99.90;;;;;;5093175;28;20548;-49
2021/12/07 09:08:36;;;;;;;0.00;0.00;;;3.70;99.90;;;;;;5093294;28;20051;-48
2021/12/07 09:11:02;;;;;;;0.15;0.15;;;3.70;99.90;;;;;;5093237;28;20028;-47
2021/12/07 09:13:28;;;;;;;0.32;0.32;;;3.70;99.90;;;;;;5093264;28;20153;-50
2021/12/07 09:15:56;;;;;;;0.00;0.00;;;3.80;99.90;;;;;;5093353;28;20024;-49
2021/12/07 09:18:21;;;;;;;0.00;0.00;;;3.80;99.90;;;;;;5093569;28;20032;-48
2021/12/07 09:20:47;;;;;;;5.32;4.32;;;3.70;99.90;;;;;;5093500;28;20020;-47
2021/12/07 09:23:13;;;;;;;0.05;0.05;;;3.60;99.90;;;;;;5093603;28;20055;-46
2021/12/07 09:25:39;;;;;;;0.00;0.00;;;3.40;99.90;;;;;;5092885;28;20097;-49
2021/12/07 09:28:06;;;;;;;0.10;0.10;;;3.40;99.90;;;;;;5092623;28;20028;-47
2021/12/07 09:30:32;;;;;;;0.00;0.00;;;3.40;99.90;;;;;;5093025;28;20025;-48
2021/12/07 09:32:58;;;;;;;0.00;0.00;;;3.30;99.90;;;;;;5093053;28;20039;-46
2021/12/07 09:35:24;;;;;;;0.00;0.00;;;3.40;99.90;;;;;;5093032;28;20074;-47
2021/12/07 09:37:53;;;;;;;0.75;0.65;;;3.60;99.90;;;;;;5092871;28;20030;-46
2021/12/07 09:40:22;;;;;;;0.10;0.10;;;3.90;99.90;;;;;;5092952;28;20425;-48
2021/12/07 09:42:49;;;;;;;0.10;0.10;;;3.80;99.90;;;;;;5074780;28;20387;-48
2021/12/07 09:45:16;;;;;;;0.00;0.00;;;3.70;99.90;;;;;;5075000;28;20441;-48
2021/12/07 09:47:43;;;;;;;0.00;0.00;;;3.50;99.90;;;;;;5092653;28;20027;-46
2021/12/07 09:50:10;;;;;;;0.77;0.32;;;3.70;99.90;;;;;;5093212;28;20024;-50
2021/12/07 09:52:36;;;;;;;0.00;0.00;;;4.00;99.90;;;;;;5075158;28;20072;-46
2021/12/07 09:55:03;;;;;;;2.03;0.10;;;4.10;99.90;;;;;;5092855;28;20032;-48
2021/12/07 09:57:29;;;;;;;0.00;0.00;;;4.20;99.90;;;;;;5092695;28;20024;-50
2021/12/07 09:59:55;;;;;;;0.22;0.20;;;4.30;99.90;;;;;;5092920;28;20020;-48
2021/12/07 10:02:21;;;;;;;1.17;0.35;;;4.30;99.90;;;;;;5092508;28;20024;-47
2021/12/07 10:04:47;;;;;;;0.00;0.00;;;4.30;99.90;;;;;;5093034;28;20443;-48
2021/12/07 10:07:13;;;;;;;0.00;0.00;;;4.40;99.90;;;;;;5092483;28;20524;-46
2021/12/07 10:09:38;;;;;;;2.17;0.10;;;4.60;99.90;;;;;;5092577;28;20454;-46
2021/12/07 10:12:06;;;;;;;0.00;0.00;;;4.50;99.90;;;;;;5093692;28;20097;-46
2021/12/07 10:14:41;;;;;;;0.13;0.05;;;4.30;99.90;;;;;;5096253;28;20486;-48
2021/12/07 10:17:07;;;;;;;0.20;0.05;;;4.40;99.90;;;;;;5096711;28;20046;-48
2021/12/07 10:19:35;;;;;;;0.10;0.10;;;4.40;99.90;;;;;;5096440;28;20028;-45
2021/12/07 10:22:10;;;;;;;0.00;0.00;;;4.60;99.90;;;;;;5096454;28;20051;-48
2021/12/07 10:24:50;;;;;;;3.03;1.00;;;4.70;99.90;;;;;;5096361;28;20441;-45
2021/12/07 10:27:36;;;;;;;0.00;0.00;;;4.70;99.90;;;;;;5096672;28;20020;-45
2021/12/07 10:30:05;;;;;;;0.00;0.00;;;4.70;99.90;;;;;;5096711;28;20024;-50
2021/12/07 10:32:31;;;;;;;0.00;0.00;;;4.70;99.90;;;;;;5096676;28;20463;-46
2021/12/07 10:34:56;;;;;;;0.00;0.00;;;4.70;99.90;;;;;;5096153;28;20113;-46
2021/12/07 10:37:22;;;;;;;0.00;0.00;;;4.90;99.90;;;;;;5095902;28;20040;-51
2021/12/07 10:39:55;;;;;;;1.65;1.02;;;5.10;99.90;;;;;;5096503;28;20031;-45
2021/12/07 10:42:29;;;;;;;0.13;0.13;;;5.10;99.90;;;;;;5096357;28;20029;-45
2021/12/07 10:44:58;;;;;;;2.70;1.17;;;5.10;99.90;;;;;;5095305;28;20028;-48
2021/12/07 10:47:24;;;;;;;0.00;0.00;;;5.20;99.90;;;;;;5095479;28;20421;-45
2021/12/07 10:49:55;;;;;;;8.30;1.02;;;5.10;99.90;;;;;;5095899;28;20032;-48
2021/12/07 10:52:34;;;;;;;0.20;0.20;;;5.20;99.90;;;;;;5096000;28;20403;-47
2021/12/07 10:55:15;;;;;;;0.00;0.00;;;5.30;99.90;;;;;;5095207;28;20291;-47
2021/12/07 10:57:57;;;;;;;6.25;0.65;;;4.90;99.90;;;;;;5095762;28;20463;-48
2021/12/07 11:00:24;;;;;;;0.00;0.00;;;5.10;99.90;;;;;;5095514;28;20148;-49
2021/12/07 11:02:57;;;;;;;0.00;0.00;;;5.30;99.90;;;;;;5095637;28;20466;-50
2021/12/07 11:05:27;;;;;;;0.22;0.15;;;5.70;99.90;;;;;;5095490;28;20398;-49
2021/12/07 11:07:53;;;;;;;0.00;0.00;;;5.90;99.90;;;;;;5095822;28;20032;-49
2021/12/07 11:10:29;;;;;;;0.05;0.05;;;5.90;99.90;;;;;;5095291;28;20099;-50
2021/12/07 11:15:49;;;;;;;0.00;0.00;;;5.70;99.90;;;;;;5095512;28;20543;-50
2021/12/07 11:18:17;;;;;;;0.00;0.00;;;5.60;99.90;;;;;;5095380;28;20036;-49
2021/12/07 11:20:43;;;;;;;0.00;0.00;;;5.30;99.90;;;;;;5095125;28;20031;-47
2021/12/07 11:23:13;;;;;;;0.10;0.10;;;5.20;99.90;;;;;;5094771;28;20463;-47
2021/12/07 11:31:23;;;;;;;3.92;0.30;;;5.20;99.90;;;;;;5095334;28;20085;-45
2021/12/07 11:33:55;;;;;;;0.00;0.00;;;4.90;99.90;;;;;;5094962;28;20024;-49
2021/12/07 11:36:25;;;;;;;0.00;0.00;;;4.70;99.90;;;;;;5095105;28;20422;-47
2021/12/07 11:38:52;;;;;;;0.00;0.00;;;4.90;99.90;;;;;;5094723;28;20051;-47
2021/12/07 11:41:25;;;;;;;0.75;0.38;;;5.00;99.90;;;;;;5095196;28;20078;-48
2021/12/07 11:44:01;;;;;;;3.55;0.20;;;5.10;99.90;;;;;;5076476;28;20063;-48
2021/12/07 11:46:30;;;;;;;0.63;0.30;;;5.00;99.90;;;;;;5076865;28;20043;-50
2021/12/07 11:49:03;;;;;;;0.10;0.05;;;4.80;99.90;;;;;;5094899;28;20369;-45
2021/12/07 11:51:29;;;;;;;0.32;0.30;;;4.80;99.90;;;;;;5094239;28;20099;-46
2021/12/07 11:53:55;;;;;;;0.40;0.38;;;4.80;99.90;;;;;;5095000;28;20052;-46
2021/12/07 11:56:20;;;;;;;0.47;0.47;;;4.60;99.90;;;;;;5094415;28;20073;-47
2021/12/07 11:58:46;;;;;;;0.10;0.10;;;4.50;99.90;;;;;;5093627;28;20054;-47
2021/12/07 12:01:12;;;;;;;0.00;0.00;;;4.50;99.90;;;;;;5094280;28;20364;-49
2021/12/07 12:03:38;;;;;;;1.98;0.70;;;4.60;99.90;;;;;;5094122;28;20051;-47
2021/12/07 12:06:05;;;;;;;0.15;0.15;;;4.60;99.90;;;;;;5094682;28;20130;-47
2021/12/07 12:08:31;;;;;;;0.00;0.00;;;4.40;99.90;;;;;;5094732;28;20031;-50
2021/12/07 12:11:22;;;;;;;0.00;0.00;;;4.30;99.90;;;;;;5094252;28;20335;-45
2021/12/07 12:13:57;;;;;;;5.18;0.63;;;4.40;99.90;;;;;;5076226;28;20160;-45
2021/12/07 12:16:46;;;;;;;0.10;0.10;;;4.50;99.90;;;;;;5094279;28;20031;-48
2021/12/07 12:19:58;;;;;;;0.20;0.20;;;4.50;99.90;;;;;;5093171;28;20463;-46
2021/12/07 12:22:31;;;;;;;0.15;0.15;;;4.40;99.90;;;;;;5094547;28;20028;-45
2021/12/07 12:25:03;;;;;;;1.73;1.40;;;4.30;99.90;;;;;;5093857;28;20081;-50
2021/12/07 12:27:33;;;;;;;0.10;0.10;;;4.20;99.90;;;;;;5094133;28;20568;-48
2021/12/07 12:30:23;;;;;;;0.00;0.00;;;4.40;99.90;;;;;;5093613;28;20051;-47
2021/12/07 12:32:56;;;;;;;0.00;0.00;;;4.90;99.90;;;;;;5082477;28;20032;-47
2021/12/07 12:35:27;;;;;;;0.00;0.00;;;5.30;99.90;;;;;;5093558;28;20071;-50
2021/12/07 12:37:53;;;;;;;0.17;0.17;;;5.70;99.90;;;;;;5093490;28;20427;-47
2021/12/07 12:40:31;;;;;;;0.30;0.20;;;5.80;99.90;;;;;;5093822;28;20074;-47
2021/12/07 12:42:57;;;;;;;1.08;0.40;;;5.70;99.90;;;;;;5093436;28;20032;-48
2021/12/07 12:45:31;;;;;;;0.47;0.00;;;5.70;99.90;;;;;;5093242;28;20039;-49
2021/12/07 12:48:08;;;;;;;4.75;0.73;;;5.80;99.90;;;;;;5093769;28;20077;-46
2021/12/07 12:50:43;;;;;;;0.00;0.00;;;5.70;99.90;;;;;;5093990;28;20031;-45
2021/12/07 12:53:11;;;;;;;0.00;0.00;;;5.30;99.90;;;;;;5094175;28;20431;-47
2021/12/07 12:55:39;;;;;;;0.15;0.05;;;5.30;99.90;;;;;;5093561;28;20035;-50
2021/12/07 12:58:10;;;;;;;1.08;1.08;;;5.40;99.90;;;;;;5093684;28;20032;-49
2021/12/07 13:01:12;;;;;;;0.00;0.00;;;5.50;99.90;;;;;;5093612;28;20027;-48
2021/12/07 13:03:41;;;;;;;0.20;0.20;;;5.30;99.90;;;;;;5093420;28;20052;-48
2021/12/07 13:06:06;;;;;;;0.10;0.10;;;5.20;99.90;;;;;;5093545;28;20105;-46
2021/12/07 13:08:49;;;;;;;0.00;0.00;;;5.10;99.90;;;;;;5093263;28;20487;-46
2021/12/07 13:11:43;;;;;;;0.10;0.10;;;5.00;99.90;;;;;;5093529;28;20104;-49
2021/12/07 13:14:24;;;;;;;0.47;0.43;;;5.00;99.90;;;;;;5093321;28;20028;-49
2021/12/07 13:17:00;;;;;;;0.52;0.40;;;5.00;99.90;;;;;;5093066;28;20039;-50
2021/12/07 13:19:28;;;;;;;0.00;0.00;;;4.90;99.90;;;;;;5092717;28;20046;-52
2021/12/07 13:22:06;;;;;;;0.00;0.00;;;4.90;99.90;;;;;;5093217;28;20031;-48
2021/12/07 13:24:38;;;;;;;0.00;0.00;;;4.80;99.90;;;;;;5093127;28;20016;-49
2021/12/07 13:27:10;;;;;;;0.43;0.43;;;4.70;99.90;;;;;;5092640;28;20028;-49
2021/12/07 13:29:38;;;;;;;0.10;0.10;;;4.80;99.90;;;;;;5092807;28;20020;-46
2021/12/07 13:32:05;;;;;;;0.00;0.00;;;4.80;99.90;;;;;;5093562;28;20081;-46
2021/12/07 13:34:34;;;;;;;0.00;0.00;;;4.90;99.90;;;;;;5093105;28;20024;-49
2021/12/07 13:37:04;;;;;;;0.00;0.00;;;4.90;99.90;;;;;;5092083;28;20370;-48
2021/12/07 13:39:35;;;;;;;0.00;0.00;;;4.70;99.90;;;;;;5092906;28;20455;-47
2021/12/07 13:42:00;;;;;;;2.53;2.30;;;4.80;99.90;;;;;;5092900;28;20058;-51
2021/12/07 13:44:28;;;;;;;0.00;0.00;;;4.80;99.90;;;;;;5080848;28;20052;-49
2021/12/07 13:47:18;;;;;;;0.10;0.03;;;4.80;99.90;;;;;;5085891;28;20040;-47
2021/12/07 13:49:47;;;;;;;0.00;0.00;;;4.80;99.90;;;;;;5083386;28;20059;-52
2021/12/07 13:52:23;;;;;;;0.45;0.45;;;4.90;99.90;;;;;;5109444;28;20541;-49
2021/12/07 13:54:56;;;;;;;0.00;0.00;;;4.80;99.90;;;;;;5101264;28;20020;-45
2021/12/07 13:57:34;;;;;;;0.00;0.00;;;4.90;99.90;;;;;;5102335;28;20122;-47
2021/12/07 14:00:06;;;;;;;0.00;0.00;;;4.80;99.90;;;;;;5107992;28;20412;-49
2021/12/07 14:02:32;;;;;;;0.30;0.30;;;4.80;99.90;;;;;;5114155;28;20024;-46
2021/12/07 14:05:10;;;;;;;0.30;0.30;;;4.80;99.90;;;;;;5095907;28;20459;-48
2021/12/07 14:07:39;;;;;;;0.65;0.52;;;4.80;99.90;;;;;;5096582;28;20107;-47
2021/12/07 14:10:08;;;;;;;0.10;0.10;;;4.80;99.90;;;;;;5091805;28;20417;-46
2021/12/07 14:12:34;;;;;;;0.00;0.00;;;4.80;99.90;;;;;;5083259;28;20024;-47
2021/12/07 14:15:27;;;;;;;0.30;0.30;;;4.80;99.90;;;;;;5075845;28;20041;-50
2021/12/07 14:18:03;;;;;;;0.00;0.00;;;4.80;99.90;;;;;;5073327;28;20045;-50
2021/12/07 14:20:33;;;;;;;7.55;7.03;;;4.90;99.90;;;;;;5078361;28;20462;-47
2021/12/07 14:23:12;;;;;;;0.00;0.00;;;4.90;99.90;;;;;;5096048;28;20020;-47
2021/12/07 14:26:05;;;;;;;0.00;0.00;;;4.90;99.90;;;;;;5095534;28;20024;-51
2021/12/07 14:28:50;;;;;;;0.00;0.00;;;4.90;99.90;;;;;;5105314;28;20486;-47
2021/12/07 14:31:19;;;;;;;0.00;0.00;;;4.80;99.90;;;;;;5116727;28;20047;-48
2021/12/07 14:33:48;;;;;;;0.00;0.00;;;4.70;99.90;;;;;;5116324;28;20362;-46
2021/12/07 14:36:19;;;;;;;0.00;0.00;;;4.70;99.90;;;;;;5112394;28;20074;-50
2021/12/07 14:38:47;;;;;;;0.00;0.00;;;4.80;99.90;;;;;;5095695;28;20482;-46
2021/12/07 14:41:18;;;;;;;0.00;0.00;;;5.00;99.90;;;;;;5096058;28;20482;-47
2021/12/07 14:43:44;;;;;;;0.00;0.00;;;5.10;99.90;;;;;;5095520;28;20035;-49
2021/12/07 14:46:14;;;;;;;0.00;0.00;;;5.00;99.90;;;;;;5095374;28;20514;-45
2021/12/07 14:48:41;;;;;;;0.00;0.00;;;4.80;99.90;;;;;;5094358;28;20035;-46
2021/12/07 14:51:22;;;;;;;0.00;0.00;;;4.70;99.90;;;;;;5086457;28;20021;-47
2021/12/07 14:53:50;;;;;;;0.00;0.00;;;4.50;99.90;;;;;;5075115;28;20035;-49
2021/12/07 14:56:18;;;;;;;1.80;0.85;;;4.30;99.90;;;;;;5090510;28;20024;-46
2021/12/07 14:58:45;;;;;;;0.30;0.30;;;4.20;99.90;;;;;;5095708;28;20501;-45
2021/12/07 15:01:15;;;;;;;0.10;0.10;;;4.20;99.90;;;;;;5095259;28;20443;-50